Time;durP1;ratioP1;P1;durP2;ratioP2;P2;SDS_P1;SDS_P2;PMS_P1;PMS_P2;Temp;Humidity;BMP_temperature;BMP_pressure;BME280_temperature;BME280_humidity;BME280_pressure;Samples;Min_cycle;Max_cycle;Signal;HPM_P1;HPM_P2
2022/09/12 00:01:50;;;;;;;3.80;2.53;;;;;;;13.22;100.00;101554.75;6273422;28;20049;-74
2022/09/12 00:04:52;;;;;;;3.30;2.67;;;;;;;13.18;100.00;101559.31;6272462;28;20179;-73
2022/09/12 00:07:53;;;;;;;3.17;2.45;;;;;;;13.18;100.00;101548.75;6273554;28;20053;-74
2022/09/12 00:10:55;;;;;;;3.40;2.35;;;;;;;13.15;100.00;101551.53;6273244;28;20053;-74
2022/09/12 00:13:57;;;;;;;2.97;2.17;;;;;;;13.09;100.00;101541.31;6272823;28;20045;-74
2022/09/12 00:17:00;;;;;;;4.63;2.60;;;;;;;13.10;100.00;101537.72;6273436;28;20092;-73
2022/09/12 00:20:02;;;;;;;4.70;2.33;;;;;;;13.13;100.00;101542.00;6272707;28;20048;-73
2022/09/12 00:23:03;;;;;;;2.15;1.95;;;;;;;13.05;100.00;101538.91;6273002;28;20528;-73
2022/09/12 00:26:06;;;;;;;3.65;2.38;;;;;;;13.04;100.00;101543.31;6272462;28;20056;-73
2022/09/12 00:29:08;;;;;;;2.42;1.88;;;;;;;13.02;100.00;101539.91;6273151;28;20053;-73
2022/09/12 00:32:11;;;;;;;3.88;2.50;;;;;;;12.99;100.00;101541.81;6272637;28;20454;-73
2022/09/12 00:35:12;;;;;;;2.53;2.03;;;;;;;12.89;100.00;101539.66;6272534;28;20049;-73
2022/09/12 00:38:14;;;;;;;2.55;2.00;;;;;;;12.90;100.00;101537.91;6273020;28;20053;-74
2022/09/12 00:41:19;;;;;;;4.35;2.50;;;;;;;12.93;100.00;101535.94;6272202;28;20396;-73
2022/09/12 00:44:43;;;;;;;2.67;2.13;;;;;;;12.99;100.00;101533.91;6272093;28;20517;-73
2022/09/12 00:47:46;;;;;;;4.43;2.28;;;;;;;12.93;100.00;101538.56;6272599;28;20617;-74
2022/09/12 00:50:48;;;;;;;4.65;2.40;;;;;;;12.89;100.00;101536.16;6272119;28;20060;-73
2022/09/12 00:53:53;;;;;;;3.10;2.35;;;;;;;12.82;100.00;101532.16;6272503;28;20053;-73
2022/09/12 00:56:58;;;;;;;3.63;2.22;;;;;;;12.81;100.00;101528.66;6272290;28;20053;-73
2022/09/12 01:00:08;;;;;;;4.75;2.67;;;;;;;12.82;100.00;101530.38;6271757;28;20079;-73
2022/09/12 01:03:14;;;;;;;3.97;2.70;;;;;;;12.77;100.00;101521.81;6272195;28;20140;-73
2022/09/12 01:06:19;;;;;;;3.35;2.38;;;;;;;12.78;100.00;101514.75;6271410;28;20423;-73
2022/09/12 01:09:24;;;;;;;2.90;2.08;;;;;;;12.77;100.00;101515.72;6272127;28;20053;-73
2022/09/12 01:12:26;;;;;;;2.08;1.88;;;;;;;12.75;100.00;101513.13;6272158;28;20056;-74
2022/09/12 01:15:27;;;;;;;2.65;2.25;;;;;;;12.76;100.00;101508.69;6271463;28;20049;-74
2022/09/12 01:18:41;;;;;;;3.75;2.67;;;;;;;12.68;100.00;101507.31;6270969;28;20049;-73
2022/09/12 01:21:59;;;;;;;3.50;1.98;;;;;;;12.57;100.00;101506.97;6271388;28;20060;-73
2022/09/12 01:25:11;;;;;;;2.70;2.33;;;;;;;12.55;100.00;101511.50;6271518;28;20064;-73
2022/09/12 01:28:32;;;;;;;4.43;2.42;;;;;;;12.55;100.00;101516.75;6271604;28;20048;-73
2022/09/12 01:31:43;;;;;;;3.80;2.33;;;;;;;12.53;100.00;101515.13;6271453;28;20396;-73
2022/09/12 01:34:50;;;;;;;3.22;2.33;;;;;;;12.44;100.00;101511.16;6270943;28;20135;-73
2022/09/12 01:37:58;;;;;;;2.90;2.08;;;;;;;12.40;100.00;101502.56;6272001;28;20059;-73
2022/09/12 01:41:09;;;;;;;6.38;2.40;;;;;;;12.39;100.00;101498.19;6271040;28;20495;-73
2022/09/12 01:44:19;;;;;;;4.32;2.50;;;;;;;12.32;100.00;101498.59;6271041;28;20041;-74
2022/09/12 01:47:31;;;;;;;4.72;2.35;;;;;;;12.27;100.00;101495.31;6271319;28;20048;-73
2022/09/12 01:50:38;;;;;;;4.47;2.67;;;;;;;12.30;100.00;101492.50;6271066;28;20045;-73
2022/09/12 01:53:44;;;;;;;3.33;2.53;;;;;;;12.29;100.00;101488.19;6271371;28;20052;-73
2022/09/12 01:56:49;;;;;;;3.72;2.20;;;;;;;12.26;100.00;101490.94;6271312;28;20044;-74
2022/09/12 01:59:54;;;;;;;5.30;2.28;;;;;;;12.30;100.00;101484.59;6270849;28;20049;-73
2022/09/12 02:03:01;;;;;;;5.38;2.13;;;;;;;12.29;100.00;101480.28;6271164;28;20048;-73
2022/09/12 02:06:08;;;;;;;5.07;2.35;;;;;;;12.29;100.00;101477.63;6270614;28;20053;-73
2022/09/12 02:09:17;;;;;;;4.57;2.10;;;;;;;12.27;100.00;101472.44;6271107;28;20045;-73
2022/09/12 02:12:25;;;;;;;3.60;2.13;;;;;;;12.24;100.00;101466.47;6270739;28;20482;-73
2022/09/12 02:15:32;;;;;;;4.00;2.60;;;;;;;12.14;100.00;101466.91;6270674;28;20488;-73
2022/09/12 02:18:38;;;;;;;3.58;2.35;;;;;;;12.08;100.00;101453.16;6258605;28;20045;-73
2022/09/12 02:21:45;;;;;;;3.67;2.40;;;;;;;12.09;100.00;101450.47;6245774;28;20496;-73
2022/09/12 02:24:50;;;;;;;4.43;2.55;;;;;;;12.09;100.00;101452.25;6245580;28;20057;-73
2022/09/12 02:27:55;;;;;;;2.92;2.08;;;;;;;12.07;100.00;101452.31;6246324;28;20057;-73
2022/09/12 02:31:05;;;;;;;3.63;2.53;;;;;;;12.00;100.00;101450.06;6250556;28;20511;-73
2022/09/12 02:34:21;;;;;;;3.67;2.42;;;;;;;11.92;100.00;101455.69;6250750;28;20515;-74
2022/09/12 02:37:31;;;;;;;3.72;2.30;;;;;;;11.89;100.00;101458.47;6250708;28;20060;-73
2022/09/12 02:40:34;;;;;;;4.13;2.15;;;;;;;11.89;100.00;101454.06;6250520;28;20053;-73
2022/09/12 02:43:36;;;;;;;3.42;1.95;;;;;;;11.86;100.00;101456.00;6250580;28;20046;-73
2022/09/12 02:46:42;;;;;;;3.60;2.08;;;;;;;11.87;100.00;101458.56;6250434;28;20178;-73
2022/09/12 02:49:45;;;;;;;3.35;2.38;;;;;;;11.98;100.00;101458.03;6250254;28;20053;-72
2022/09/12 02:52:47;;;;;;;3.22;2.15;;;;;;;12.06;100.00;101462.94;6250877;28;20053;-73
2022/09/12 02:55:49;;;;;;;5.20;2.22;;;;;;;12.08;100.00;101461.94;6249966;28;20085;-73
2022/09/12 02:58:51;;;;;;;3.97;2.72;;;;;;;12.08;100.00;101461.94;6247557;28;20050;-73
2022/09/12 03:02:20;;;;;;;2.88;2.50;;;;;;;12.06;100.00;101462.94;6249885;28;20052;-74
2022/09/12 03:05:31;;;;;;;4.97;2.53;;;;;;;12.02;100.00;101459.59;6247759;28;20522;-73
2022/09/12 03:08:53;;;;;;;4.20;2.63;;;;;;;11.97;100.00;101468.66;6250005;28;20413;-73
2022/09/12 03:12:08;;;;;;;5.22;2.47;;;;;;;11.89;100.00;101463.72;6249656;28;20049;-73
2022/09/12 03:15:22;;;;;;;4.68;2.20;;;;;;;11.88;100.00;101460.25;6249961;28;20046;-73
2022/09/12 03:18:39;;;;;;;4.40;2.33;;;;;;;11.92;100.00;101453.06;6250078;28;20053;-73
2022/09/12 03:21:52;;;;;;;3.13;2.33;;;;;;;11.85;100.00;101449.84;6249661;28;20053;-74
2022/09/12 03:25:03;;;;;;;5.65;3.25;;;;;;;11.82;100.00;101452.66;6249285;28;20049;-73
2022/09/12 03:28:08;;;;;;;7.45;3.28;;;;;;;11.80;100.00;101450.97;6249772;28;20060;-73
2022/09/12 03:31:15;;;;;;;3.72;2.38;;;;;;;11.84;100.00;101448.16;6249350;28;20427;-73
2022/09/12 03:34:16;;;;;;;5.60;2.90;;;;;;;11.87;100.00;101449.78;6249099;28;20448;-73
2022/09/12 03:37:19;;;;;;;4.70;2.33;;;;;;;11.88;100.00;101460.25;6249783;28;20058;-73
2022/09/12 03:40:20;;;;;;;5.20;2.92;;;;;;;11.81;100.00;101453.56;6243452;28;20050;-73
2022/09/12 03:43:22;;;;;;;6.10;2.58;;;;;;;11.85;100.00;101462.16;6260441;28;20543;-73
2022/09/12 03:46:23;;;;;;;5.47;2.92;;;;;;;11.81;100.00;101455.31;6265209;28;20052;-73
2022/09/12 03:49:24;;;;;;;6.63;3.20;;;;;;;11.75;100.00;101455.59;6265834;28;20060;-73
2022/09/12 03:52:27;;;;;;;4.03;2.90;;;;;;;11.74;100.00;101459.16;6273872;28;20056;-73
2022/09/12 03:55:29;;;;;;;5.65;3.17;;;;;;;11.73;100.00;101445.16;6273400;28;20056;-73
2022/09/12 03:58:31;;;;;;;4.90;3.00;;;;;;;11.69;100.00;101447.06;6273857;28;20048;-73
2022/09/12 04:01:33;;;;;;;6.00;3.42;;;;;;;11.68;100.00;101449.78;6262869;28;20056;-73
2022/09/12 04:04:34;;;;;;;4.05;2.90;;;;;;;11.69;100.00;101440.94;6272645;28;20041;-73
2022/09/12 04:07:37;;;;;;;5.43;3.33;;;;;;;11.67;100.00;101445.41;6273522;28;20423;-73
2022/09/12 04:10:38;;;;;;;6.70;3.40;;;;;;;11.66;100.00;101459.50;6273157;28;20072;-73
2022/09/12 04:13:41;;;;;;;5.07;3.20;;;;;;;11.61;100.00;101456.25;6273465;28;20056;-73
2022/09/12 04:16:42;;;;;;;5.43;3.33;;;;;;;11.61;100.00;101454.47;6273248;28;20056;-73
2022/09/12 04:19:44;;;;;;;7.45;3.45;;;;;;;11.62;100.00;101448.25;6273255;28;20053;-73
2022/09/12 04:22:46;;;;;;;6.60;4.00;;;;;;;11.62;100.00;101450.03;6273136;28;20044;-73
2022/09/12 04:25:54;;;;;;;5.70;3.20;;;;;;;11.57;100.00;101454.69;6272708;28;20052;-73
2022/09/12 04:28:56;;;;;;;6.32;3.58;;;;;;;11.55;100.00;101451.28;6265971;28;20419;-73
2022/09/12 04:31:57;;;;;;;8.45;4.00;;;;;;;11.56;100.00;101455.59;6267154;28;20045;-73
2022/09/12 04:34:59;;;;;;;7.97;3.75;;;;;;;11.56;100.00;101456.47;6272430;28;20124;-73
2022/09/12 04:38:02;;;;;;;6.00;4.00;;;;;;;11.53;100.00;101453.94;6272762;28;20068;-73
2022/09/12 04:41:10;;;;;;;6.18;4.13;;;;;;;11.53;100.00;101451.31;6272459;28;20049;-73
2022/09/12 04:44:14;;;;;;;9.40;4.40;;;;;;;11.53;100.00;101455.75;6272487;28;20068;-73
2022/09/12 04:47:15;;;;;;;9.77;4.13;;;;;;;11.49;100.00;101454.16;6272744;28;20045;-73
2022/09/12 04:50:17;;;;;;;6.40;3.88;;;;;;;11.42;100.00;101457.09;6272262;28;20056;-73
2022/09/12 04:53:20;;;;;;;7.43;4.22;;;;;;;11.43;100.00;101445.63;6272354;28;20049;-73
2022/09/12 04:56:22;;;;;;;6.63;3.88;;;;;;;11.46;100.00;101449.06;6271930;28;20078;-73
2022/09/12 04:59:24;;;;;;;8.00;3.88;;;;;;;11.45;100.00;101450.00;6272471;28;20056;-73
2022/09/12 05:02:25;;;;;;;6.57;3.88;;;;;;;11.43;100.00;101450.91;6271935;28;20045;-73
2022/09/12 05:05:27;;;;;;;6.60;3.78;;;;;;;11.46;100.00;101456.97;6271664;28;20439;-73
2022/09/12 05:08:30;;;;;;;7.95;4.05;;;;;;;11.48;100.00;101453.31;6272136;28;20052;-73
2022/09/12 05:11:33;;;;;;;8.70;4.13;;;;;;;11.51;100.00;101453.19;6271872;28;20052;-73
2022/09/12 05:14:34;;;;;;;8.75;3.90;;;;;;;11.55;100.00;101459.16;6271582;28;20056;-73
2022/09/12 05:17:36;;;;;;;8.15;4.40;;;;;;;11.50;100.00;101462.00;6272173;28;20044;-73
2022/09/12 05:20:37;;;;;;;6.85;4.07;;;;;;;11.52;100.00;101454.03;6271772;28;20053;-73
2022/09/12 05:23:40;;;;;;;6.45;3.83;;;;;;;11.55;100.00;101457.38;6272070;28;20053;-73
2022/09/12 05:26:41;;;;;;;9.85;4.78;;;;;;;11.57;100.00;101455.53;6271911;28;20056;-73
2022/09/12 05:29:43;;;;;;;5.63;3.83;;;;;;;11.59;100.00;101452.84;6271356;28;20060;-73
2022/09/12 05:32:44;;;;;;;7.80;4.05;;;;;;;11.61;100.00;101450.97;6271846;28;20060;-73
2022/09/12 05:35:51;;;;;;;7.70;4.03;;;;;;;11.61;100.00;101453.63;6270917;28;20415;-73
2022/09/12 05:38:53;;;;;;;8.82;4.28;;;;;;;11.60;100.00;101458.03;6269571;28;20480;-73
2022/09/12 05:41:55;;;;;;;9.85;4.65;;;;;;;11.63;100.00;101457.03;6246279;28;20180;-73
2022/09/12 05:44:57;;;;;;;8.00;3.95;;;;;;;11.71;100.00;101456.66;6245943;28;20045;-73
2022/09/12 05:47:58;;;;;;;7.57;4.85;;;;;;;11.75;100.00;101458.22;6243605;28;20052;-73
2022/09/12 05:51:01;;;;;;;10.45;4.90;;;;;;;11.79;100.00;101450.13;6245988;28;20053;-73
2022/09/12 05:54:06;;;;;;;8.70;4.10;;;;;;;11.81;100.00;101453.56;6246364;28;20045;-73
2022/09/12 05:57:07;;;;;;;6.75;4.07;;;;;;;11.80;100.00;101457.09;6246717;28;20076;-73
2022/09/12 06:00:10;;;;;;;5.68;3.55;;;;;;;11.84;100.00;101458.69;6246271;28;20056;-73
2022/09/12 06:03:11;;;;;;;6.35;3.85;;;;;;;11.88;100.00;101462.03;6247366;28;20056;-73
2022/09/12 06:06:14;;;;;;;6.90;3.55;;;;;;;11.92;100.00;101460.97;6251306;28;20050;-73
2022/09/12 06:09:17;;;;;;;9.32;4.50;;;;;;;11.95;100.00;101455.56;6251411;28;20046;-74
2022/09/12 06:12:19;;;;;;;9.23;4.20;;;;;;;12.02;100.00;101461.38;6250917;28;20073;-73
2022/09/12 06:15:20;;;;;;;6.75;3.38;;;;;;;12.05;100.00;101454.19;6249799;28;20412;-73
2022/09/12 06:18:22;;;;;;;6.13;3.58;;;;;;;12.08;100.00;101453.16;6249777;28;20056;-73
2022/09/12 06:21:25;;;;;;;7.35;4.00;;;;;;;12.12;100.00;101452.09;6249305;28;20053;-73
2022/09/12 06:24:28;;;;;;;5.75;3.72;;;;;;;12.19;100.00;101453.53;6249148;28;20424;-73
2022/09/12 06:27:29;;;;;;;9.93;3.97;;;;;;;12.24;100.00;101448.03;6249370;28;20409;-73
2022/09/12 06:30:30;;;;;;;5.90;3.83;;;;;;;12.30;100.00;101445.06;6249444;28;20049;-73
2022/09/12 06:33:33;;;;;;;9.23;3.92;;;;;;;12.38;100.00;101445.56;6249454;28;20497;-74
2022/09/12 06:36:38;;;;;;;7.80;3.60;;;;;;;12.46;100.00;101442.56;6249412;28;20049;-73
2022/09/12 06:39:41;;;;;;;8.48;4.68;;;;;;;12.55;100.00;101445.56;6247283;28;20049;-73
2022/09/12 06:42:43;;;;;;;11.40;5.22;;;;;;;12.64;100.00;101444.25;6249201;28;20053;-73
2022/09/12 06:45:49;;;;;;;12.27;5.25;;;;;;;12.73;100.00;101451.69;6248879;28;20107;-73
2022/09/12 06:48:50;;;;;;;13.30;6.20;;;;;;;12.83;100.00;101445.00;6249162;28;20041;-73
2022/09/12 06:51:51;;;;;;;13.30;5.97;;;;;;;12.93;100.00;101443.59;6248817;28;20049;-73
2022/09/12 06:54:54;;;;;;;13.65;5.35;;;;;;;13.03;100.00;101448.41;6246780;28;20056;-73
2022/09/12 06:57:56;;;;;;;14.00;5.93;;;;;;;13.09;100.00;101448.94;6248924;28;20048;-73
2022/09/12 07:01:02;;;;;;;14.57;5.13;;;;;;;13.18;100.00;101458.16;6247460;28;20054;-73
2022/09/12 07:04:04;;;;;;;15.32;5.78;;;;;;;13.25;100.00;101449.00;6245749;28;20049;-73
2022/09/12 07:07:05;;;;;;;9.52;4.90;;;;;;;13.32;100.00;101452.19;6240469;28;20060;-73
2022/09/12 07:10:10;;;;;;;11.60;5.30;;;;;;;13.39;100.00;101454.38;6246726;28;21590;-73
2022/09/12 07:13:12;;;;;;;13.93;6.47;;;;;;;13.50;100.00;101447.69;6247008;28;20053;-74
2022/09/12 07:16:14;;;;;;;14.00;6.93;;;;;;;13.61;100.00;101455.88;6249540;28;20054;-73
2022/09/12 07:19:20;;;;;;;13.02;5.82;;;;;;;13.68;100.00;101451.97;6250230;28;20068;-75
2022/09/12 07:22:21;;;;;;;10.35;5.65;;;;;;;13.76;100.00;101454.19;6249497;28;20420;-73
2022/09/12 07:25:24;;;;;;;10.63;5.82;;;;;;;13.89;100.00;101449.91;6249244;28;20432;-74
2022/09/12 07:28:26;;;;;;;10.80;5.97;;;;;;;13.98;100.00;101446.75;6249804;28;20049;-73
2022/09/12 07:31:28;;;;;;;13.60;6.40;;;;;;;14.05;100.00;101448.13;6249285;28;20054;-73
2022/09/12 07:34:29;;;;;;;12.07;5.75;;;;;;;14.13;100.00;101450.34;6249176;28;20048;-74
2022/09/12 07:37:31;;;;;;;15.38;6.05;;;;;;;14.18;100.00;101443.00;6249714;28;20060;-73
2022/09/12 07:40:33;;;;;;;13.70;5.75;;;;;;;14.25;100.00;101441.69;6249189;28;20111;-73
2022/09/12 07:43:35;;;;;;;11.68;5.68;;;;;;;14.32;100.00;101440.41;6249502;28;20056;-74
2022/09/12 07:46:37;;;;;;;7.30;4.20;;;;;;;14.38;100.00;101441.84;6248993;28;20076;-74
2022/09/12 07:49:38;;;;;;;12.05;5.50;;;;;;;14.44;100.00;101444.13;6249355;28;20049;-73
2022/09/12 07:52:39;;;;;;;13.45;6.60;;;;;;;14.57;100.00;101437.19;6245563;28;20563;-74
2022/09/12 07:55:42;;;;;;;12.32;6.00;;;;;;;14.69;100.00;101441.78;6246993;28;20049;-74
2022/09/12 07:58:44;;;;;;;11.40;5.97;;;;;;;14.77;100.00;101437.84;6249206;28;20075;-74
2022/09/12 08:01:46;;;;;;;12.73;6.60;;;;;;;14.82;100.00;101441.06;6241001;28;20056;-73
2022/09/12 08:04:48;;;;;;;14.90;5.95;;;;;;;14.90;100.00;101437.00;6248277;28;20130;-74
2022/09/12 08:07:49;;;;;;;12.57;5.88;;;;;;;14.95;100.00;101434.94;6248937;28;20049;-74
2022/09/12 08:10:56;;;;;;;13.70;6.53;;;;;;;15.09;100.00;101439.38;6248547;28;20135;-73
2022/09/12 08:13:58;;;;;;;11.05;5.32;;;;;;;15.18;100.00;101438.81;6248629;28;20060;-74
2022/09/12 08:17:00;;;;;;;13.15;6.65;;;;;;;15.28;100.00;101440.91;6248763;28;20489;-74
2022/09/12 08:20:02;;;;;;;8.93;4.28;;;;;;;15.36;100.00;101447.41;6248489;28;20059;-74
2022/09/12 08:23:03;;;;;;;13.77;5.75;;;;;;;15.52;100.00;101444.66;6248761;28;20481;-74
2022/09/12 08:26:08;;;;;;;11.35;5.55;;;;;;;15.66;100.00;101442.00;6243881;28;20061;-74
2022/09/12 08:29:09;;;;;;;9.55;4.53;;;;;;;15.79;100.00;101436.78;6248275;28;20045;-74
2022/09/12 08:32:10;;;;;;;11.73;4.93;;;;;;;15.85;100.00;101441.72;6248182;28;20053;-73
2022/09/12 08:35:11;;;;;;;7.78;4.57;;;;;;;15.97;100.00;101440.88;6247507;28;20421;-74
2022/09/12 08:38:13;;;;;;;10.35;4.38;;;;;;;16.16;100.00;101437.03;6248177;28;20053;-74
2022/09/12 08:41:26;;;;;;;9.23;4.57;;;;;;;16.29;100.00;101429.97;6246842;28;20057;-74
2022/09/12 08:44:52;;;;;;;8.55;3.42;;;;;;;16.39;100.00;101433.72;6247433;28;20112;-74
2022/09/12 08:47:56;;;;;;;6.47;3.33;;;;;;;16.50;100.00;101425.06;6248015;28;20045;-73
2022/09/12 08:50:58;;;;;;;6.90;2.55;;;;;;;16.63;100.00;101425.91;6247595;28;20520;-74
2022/09/12 08:54:02;;;;;;;9.93;3.00;;;;;;;16.69;100.00;101429.97;6247223;28;20053;-74
2022/09/12 08:57:06;;;;;;;5.13;3.00;;;;;;;16.76;100.00;101427.75;6247978;28;20057;-74
2022/09/12 09:00:14;;;;;;;6.47;3.13;;;;;;;16.82;100.00;101433.50;6241508;28;20049;-74
2022/09/12 09:03:38;;;;;;;5.70;2.35;;;;;;;16.86;100.00;101426.19;6244754;28;20044;-74
2022/09/12 09:07:06;;;;;;;3.50;2.05;;;;;;;16.96;100.00;101437.88;6274000;22;20049;-73
2022/09/12 09:10:16;;;;;;;5.40;1.98;;;;;;;17.04;100.00;101419.59;6196533;28;20050;-74
2022/09/12 09:16:59;;;;;;;4.03;1.98;;;;;;;17.34;100.00;101411.25;6189838;28;20054;-74
2022/09/12 09:20:11;;;;;;;4.60;2.17;;;;;;;17.39;100.00;101408.28;6198221;28;20053;-73
2022/09/12 09:23:16;;;;;;;7.38;2.42;;;;;;;17.40;100.00;101413.50;6198383;28;20051;-73
2022/09/12 09:26:25;;;;;;;7.95;2.58;;;;;;;17.50;100.00;101401.25;6197883;28;20060;-74
2022/09/12 09:29:33;;;;;;;6.75;2.95;;;;;;;17.57;100.00;101398.13;6198162;28;20485;-73
2022/09/12 09:32:39;;;;;;;8.45;2.85;;;;;;;17.60;100.00;101397.94;6198274;28;20057;-74
2022/09/12 09:35:44;;;;;;;5.18;2.65;;;;;;;17.67;100.00;101402.69;6197816;28;20057;-74
2022/09/12 09:38:49;;;;;;;3.28;1.70;;;;;;;17.77;100.00;101391.41;6197364;28;20100;-72
2022/09/12 09:42:02;;;;;;;2.85;1.80;;;;;;;17.84;100.00;101384.66;6197691;28;20057;-72
2022/09/12 09:45:13;;;;;;;2.85;2.15;;;;;;;17.91;100.00;101396.56;6197944;28;20046;-72
2022/09/12 09:48:19;;;;;;;6.53;2.58;;;;;;;17.98;100.00;101393.31;6197818;28;20050;-72
2022/09/12 09:51:25;;;;;;;3.47;2.10;;;;;;;18.05;98.68;101392.88;6197739;28;20057;-72
2022/09/12 09:54:34;;;;;;;6.90;2.58;;;;;;;18.13;97.22;101390.50;6197389;28;20053;-72
2022/09/12 09:57:44;;;;;;;6.77;2.10;;;;;;;18.18;95.09;101388.34;6198124;28;20535;-72
2022/09/12 10:00:48;;;;;;;3.10;1.92;;;;;;;18.19;95.96;101393.53;6197122;28;20185;-72
2022/09/12 10:03:52;;;;;;;4.07;2.22;;;;;;;18.19;96.29;101382.91;6197248;28;20050;-72
2022/09/12 10:06:56;;;;;;;3.25;1.52;;;;;;;18.29;96.42;101384.88;6197515;28;20047;-72
2022/09/12 10:10:07;;;;;;;2.40;1.83;;;;;;;18.34;95.68;101382.69;6197216;28;20054;-72
2022/09/12 10:13:21;;;;;;;2.13;1.63;;;;;;;18.42;94.94;101385.63;6197735;28;20047;-72
2022/09/12 10:16:26;;;;;;;2.90;1.73;;;;;;;18.47;93.02;101380.81;6197460;28;20058;-72
2022/09/12 10:19:35;;;;;;;2.25;1.40;;;;;;;18.54;94.00;101379.38;6197765;28;20050;-72
2022/09/12 10:22:38;;;;;;;2.13;1.60;;;;;;;18.62;91.33;101379.66;6197318;28;20521;-72
2022/09/12 10:25:39;;;;;;;4.10;2.33;;;;;;;18.71;86.62;101373.66;6197220;28;20517;-72
2022/09/12 10:28:45;;;;;;;3.47;1.42;;;;;;;18.76;87.75;101378.63;6197191;28;20138;-72
2022/09/12 10:31:51;;;;;;;2.72;1.80;;;;;;;18.82;87.49;101372.78;6197181;28;20418;-72
2022/09/12 10:34:55;;;;;;;1.80;1.27;;;;;;;18.86;85.58;101363.59;6196849;28;20062;-72
2022/09/12 10:38:00;;;;;;;2.28;1.77;;;;;;;18.93;88.22;101371.94;6197456;28;20053;-72
2022/09/12 10:41:05;;;;;;;3.58;1.65;;;;;;;18.97;84.91;101362.75;6196794;28;20120;-72
2022/09/12 10:44:09;;;;;;;1.63;1.30;;;;;;;19.06;83.61;101366.50;6197071;28;20055;-72
2022/09/12 10:47:23;;;;;;;2.28;1.38;;;;;;;19.09;82.96;101363.59;6196973;28;20042;-72
2022/09/12 10:50:30;;;;;;;1.77;1.10;;;;;;;19.15;84.94;101355.13;6199213;28;20177;-73
2022/09/12 10:53:39;;;;;;;1.98;1.35;;;;;;;19.18;86.57;101353.06;6201506;28;20054;-72
2022/09/12 10:56:52;;;;;;;4.15;1.50;;;;;;;19.25;86.00;101350.72;6201303;28;20573;-72
2022/09/12 11:00:07;;;;;;;2.72;1.60;;;;;;;19.33;87.53;101342.97;6201036;28;20054;-72
2022/09/12 11:03:15;;;;;;;3.10;1.70;;;;;;;19.41;84.04;101331.72;6197476;28;20505;-72
2022/09/12 11:06:24;;;;;;;2.08;1.80;;;;;;;19.54;82.12;101340.41;6198663;28;20113;-72
2022/09/12 11:09:31;;;;;;;3.45;1.50;;;;;;;19.69;83.18;101339.16;6197950;28;20047;-73
2022/09/12 11:12:41;;;;;;;3.55;1.10;;;;;;;19.88;82.72;101343.81;6200829;28;20054;-73
2022/09/12 11:15:58;;;;;;;2.42;1.60;;;;;;;20.08;80.42;101331.50;6200919;28;20494;-72
2022/09/12 11:19:21;;;;;;;3.00;1.52;;;;;;;20.23;79.50;101334.69;6195787;28;20055;-72
2022/09/12 11:22:43;;;;;;;2.92;1.83;;;;;;;20.25;78.15;101333.56;6200397;28;20058;-73
2022/09/12 11:25:51;;;;;;;3.45;1.70;;;;;;;20.17;78.84;101317.38;6200938;28;20042;-71
2022/09/12 11:29:03;;;;;;;2.60;1.88;;;;;;;20.14;79.46;101309.63;6200619;28;20061;-72
2022/09/12 11:32:27;;;;;;;1.20;1.10;;;;;;;20.20;81.21;101313.59;6200401;28;20050;-71
2022/09/12 11:35:32;;;;;;;2.72;1.30;;;;;;;20.27;80.10;101304.94;6200504;28;20051;-71
2022/09/12 11:38:51;;;;;;;2.20;1.40;;;;;;;20.52;80.09;101303.69;6200792;28;20050;-71
2022/09/12 11:41:57;;;;;;;2.40;1.60;;;;;;;20.72;79.08;101307.31;6199916;28;20168;-72
2022/09/12 11:45:07;;;;;;;1.90;1.38;;;;;;;20.87;76.99;101307.78;6200076;28;20050;-72
2022/09/12 11:48:15;;;;;;;1.80;1.42;;;;;;;21.00;79.69;101302.22;6197761;28;20038;-72
2022/09/12 11:51:21;;;;;;;3.30;1.63;;;;;;;21.06;75.63;101309.69;6199661;28;20083;-71
2022/09/12 11:54:29;;;;;;;3.72;1.95;;;;;;;21.14;74.44;101298.31;6196086;28;20061;-72
2022/09/12 11:57:37;;;;;;;3.35;1.70;;;;;;;21.14;74.78;101303.66;6192348;28;20517;-72
2022/09/12 12:00:43;;;;;;;2.40;1.40;;;;;;;21.08;75.04;101293.53;6199584;28;20057;-71
2022/09/12 12:03:47;;;;;;;2.30;1.13;;;;;;;21.18;76.62;101295.25;6180402;28;20161;-71
2022/09/12 12:06:56;;;;;;;1.98;1.40;;;;;;;21.27;75.29;101294.41;6177870;28;20043;-71
2022/09/12 12:09:57;;;;;;;1.80;1.10;;;;;;;21.66;77.13;101285.59;6199625;28;20058;-72
2022/09/12 12:13:01;;;;;;;1.38;1.20;;;;;;;21.99;72.66;101295.03;6198850;28;20051;-72
2022/09/12 12:16:07;;;;;;;1.35;0.80;;;;;;;22.08;67.10;101296.88;6199246;28;20046;-72
2022/09/12 12:19:28;;;;;;;1.25;0.88;;;;;;;22.10;66.50;101300.22;6199548;28;20051;-72
2022/09/12 12:22:31;;;;;;;3.13;1.20;;;;;;;22.05;67.60;101294.47;6199082;28;20057;-72
2022/09/12 12:25:41;;;;;;;1.48;1.15;;;;;;;22.07;67.34;101294.31;6199394;28;20421;-72
2022/09/12 12:28:58;;;;;;;1.08;0.98;;;;;;;22.11;65.07;101288.53;6199285;28;20050;-72
2022/09/12 12:32:22;;;;;;;1.63;1.02;;;;;;;22.21;63.41;101277.81;6198807;28;20042;-71
2022/09/12 12:35:41;;;;;;;1.75;1.15;;;;;;;22.20;61.20;101282.34;6198334;28;20051;-71
2022/09/12 12:38:43;;;;;;;1.02;0.90;;;;;;;22.37;62.09;101277.25;6199350;28;20073;-73
2022/09/12 12:41:45;;;;;;;1.00;0.90;;;;;;;22.71;61.88;101264.13;6198783;28;20069;-72
2022/09/12 12:44:48;;;;;;;6.13;0.80;;;;;;;23.06;60.59;101266.09;6198960;28;20181;-73
2022/09/12 12:47:54;;;;;;;2.00;1.17;;;;;;;23.34;58.97;101263.38;6198890;28;20050;-72
2022/09/12 12:51:29;;;;;;;1.02;0.80;;;;;;;23.58;57.43;101258.25;6198891;28;20420;-72
2022/09/12 12:54:49;;;;;;;2.10;0.90;;;;;;;23.66;57.97;101252.13;6198644;28;20528;-73
2022/09/12 12:57:52;;;;;;;0.65;0.65;;;;;;;23.83;58.47;101255.81;6196224;28;20050;-73
2022/09/12 13:01:07;;;;;;;1.17;0.95;;;;;;;24.02;56.95;101248.38;6198773;28;20054;-73
2022/09/12 13:04:15;;;;;;;1.70;0.95;;;;;;;24.07;56.70;101245.22;6198216;28;20065;-73
2022/09/12 13:07:27;;;;;;;0.90;0.73;;;;;;;24.18;56.33;101244.16;6198502;28;20046;-72
2022/09/12 13:10:30;;;;;;;1.40;0.95;;;;;;;24.21;55.88;101236.63;6194920;28;20055;-72
2022/09/12 13:13:37;;;;;;;1.58;1.10;;;;;;;24.11;54.20;101225.13;6198507;28;20050;-73
2022/09/12 13:16:51;;;;;;;0.95;0.75;;;;;;;23.90;55.42;101224.66;6194667;28;20046;-73
2022/09/12 13:20:02;;;;;;;1.17;0.77;;;;;;;23.98;55.42;101222.00;6174096;28;20055;-71
2022/09/12 13:23:04;;;;;;;2.13;0.57;;;;;;;24.27;54.50;101210.97;6179091;28;20054;-72
2022/09/12 13:26:11;;;;;;;1.08;0.90;;;;;;;24.49;55.29;101204.22;6197880;28;20049;-71
2022/09/12 13:29:16;;;;;;;1.10;0.70;;;;;;;24.74;55.65;101191.69;6198086;28;20046;-72
2022/09/12 13:32:18;;;;;;;1.10;1.00;;;;;;;24.82;54.93;101189.03;6196543;28;20054;-72
2022/09/12 13:35:28;;;;;;;1.80;0.80;;;;;;;24.89;55.38;101187.41;6195460;28;20525;-72
2022/09/12 13:38:38;;;;;;;1.17;0.90;;;;;;;25.06;52.67;101186.41;6198148;28;20058;-72
2022/09/12 13:42:02;;;;;;;1.48;0.80;;;;;;;25.09;51.14;101174.50;6197280;28;20517;-72
2022/09/12 13:45:10;;;;;;;1.15;0.80;;;;;;;25.13;50.96;101177.72;6197927;28;20058;-73
2022/09/12 13:48:16;;;;;;;1.65;0.88;;;;;;;25.25;52.89;101174.53;6197433;28;20629;-72
2022/09/12 13:51:24;;;;;;;1.30;0.47;;;;;;;25.35;52.33;101170.84;6197645;28;20065;-73
2022/09/12 13:54:26;;;;;;;1.27;0.75;;;;;;;25.41;51.40;101162.94;6197462;28;20399;-72
2022/09/12 13:57:32;;;;;;;0.70;0.70;;;;;;;25.49;50.23;101152.16;6197690;28;20046;-72
2022/09/12 14:00:34;;;;;;;0.75;0.75;;;;;;;25.37;50.95;101150.81;6197300;28;20057;-73
2022/09/12 14:07:01;;;;;;;0.95;0.80;;;;;;;25.37;49.23;101150.81;6197251;28;20054;-73
2022/09/12 14:10:04;;;;;;;2.40;0.70;;;;;;;25.40;50.88;101142.41;6197220;28;20429;-72
2022/09/12 14:13:16;;;;;;;1.38;0.75;;;;;;;25.39;49.16;101146.13;6197562;28;20061;-73
2022/09/12 14:16:20;;;;;;;1.33;0.82;;;;;;;25.52;50.73;101157.19;6196749;28;20050;-73
2022/09/12 14:19:24;;;;;;;1.02;0.90;;;;;;;25.58;49.19;101141.41;6196793;28;20061;-73
2022/09/12 14:22:28;;;;;;;1.05;0.80;;;;;;;25.59;49.78;101138.53;6196834;28;20461;-73
2022/09/12 14:25:37;;;;;;;1.10;0.90;;;;;;;25.58;49.51;101139.53;6199449;28;20413;-73